sensor_id;sensor_type;location;lat;lon;timestamp;P1;durP1;ratioP1;P2;durP2;ratioP2
21424;SDS011;10873;51.132;16.848;2022-12-11T00:01:14;26.50;;;19.42;;
21424;SDS011;10873;51.132;16.848;2022-12-11T00:03:43;25.30;;;18.77;;
21424;SDS011;10873;51.132;16.848;2022-12-11T00:06:10;27.60;;;19.80;;
21424;SDS011;10873;51.132;16.848;2022-12-11T00:08:37;25.02;;;18.73;;
21424;SDS011;10873;51.132;16.848;2022-12-11T00:11:03;27.60;;;19.50;;
21424;SDS011;10873;51.132;16.848;2022-12-11T00:13:29;28.17;;;19.55;;
21424;SDS011;10873;51.132;16.848;2022-12-11T00:15:56;25.23;;;17.90;;
21424;SDS011;10873;51.132;16.848;2022-12-11T00:18:23;25.65;;;18.83;;
21424;SDS011;10873;51.132;16.848;2022-12-11T00:20:50;24.33;;;18.75;;
21424;SDS011;10873;51.132;16.848;2022-12-11T00:23:18;25.80;;;18.77;;
21424;SDS011;10873;51.132;16.848;2022-12-11T00:25:44;24.75;;;18.40;;
21424;SDS011;10873;51.132;16.848;2022-12-11T00:28:11;25.95;;;18.58;;
21424;SDS011;10873;51.132;16.848;2022-12-11T00:30:39;25.88;;;18.65;;
21424;SDS011;10873;51.132;16.848;2022-12-11T00:33:07;27.83;;;19.05;;
21424;SDS011;10873;51.132;16.848;2022-12-11T00:35:36;26.13;;;18.92;;
21424;SDS011;10873;51.132;16.848;2022-12-11T00:38:04;27.20;;;19.40;;
21424;SDS011;10873;51.132;16.848;2022-12-11T00:40:32;24.27;;;18.50;;
21424;SDS011;10873;51.132;16.848;2022-12-11T00:42:58;25.50;;;18.08;;
21424;SDS011;10873;51.132;16.848;2022-12-11T00:45:24;23.75;;;17.63;;
21424;SDS011;10873;51.132;16.848;2022-12-11T00:47:50;24.48;;;17.92;;
21424;SDS011;10873;51.132;16.848;2022-12-11T00:50:16;25.73;;;19.13;;
21424;SDS011;10873;51.132;16.848;2022-12-11T00:52:43;22.38;;;17.13;;
21424;SDS011;10873;51.132;16.848;2022-12-11T00:55:10;24.92;;;17.95;;
21424;SDS011;10873;51.132;16.848;2022-12-11T00:57:37;24.73;;;18.67;;
21424;SDS011;10873;51.132;16.848;2022-12-11T01:00:03;24.88;;;18.25;;
21424;SDS011;10873;51.132;16.848;2022-12-11T01:02:31;24.17;;;18.20;;
21424;SDS011;10873;51.132;16.848;2022-12-11T01:04:57;24.40;;;18.23;;
21424;SDS011;10873;51.132;16.848;2022-12-11T01:07:23;25.10;;;17.77;;
21424;SDS011;10873;51.132;16.848;2022-12-11T01:09:49;25.35;;;18.55;;
21424;SDS011;10873;51.132;16.848;2022-12-11T01:12:35;24.30;;;17.42;;
21424;SDS011;10873;51.132;16.848;2022-12-11T01:15:01;22.38;;;16.27;;
21424;SDS011;10873;51.132;16.848;2022-12-11T01:17:28;23.23;;;17.50;;
21424;SDS011;10873;51.132;16.848;2022-12-11T01:19:53;24.17;;;17.65;;
21424;SDS011;10873;51.132;16.848;2022-12-11T01:22:20;23.52;;;17.27;;
21424;SDS011;10873;51.132;16.848;2022-12-11T01:24:46;22.73;;;16.65;;
21424;SDS011;10873;51.132;16.848;2022-12-11T01:27:12;23.38;;;17.38;;
21424;SDS011;10873;51.132;16.848;2022-12-11T01:29:39;23.30;;;16.88;;
21424;SDS011;10873;51.132;16.848;2022-12-11T01:32:05;23.10;;;16.98;;
21424;SDS011;10873;51.132;16.848;2022-12-11T01:34:31;21.83;;;16.95;;
21424;SDS011;10873;51.132;16.848;2022-12-11T01:36:58;22.85;;;16.13;;
21424;SDS011;10873;51.132;16.848;2022-12-11T01:39:24;23.17;;;16.23;;
21424;SDS011;10873;51.132;16.848;2022-12-11T01:41:50;21.55;;;15.75;;
21424;SDS011;10873;51.132;16.848;2022-12-11T01:47:26;22.60;;;17.08;;
21424;SDS011;10873;51.132;16.848;2022-12-11T01:49:52;22.23;;;16.25;;
21424;SDS011;10873;51.132;16.848;2022-12-11T01:52:18;22.85;;;16.42;;
21424;SDS011;10873;51.132;16.848;2022-12-11T01:54:46;22.98;;;16.70;;
21424;SDS011;10873;51.132;16.848;2022-12-11T01:57:14;22.70;;;16.75;;
21424;SDS011;10873;51.132;16.848;2022-12-11T01:59:42;21.45;;;16.20;;
21424;SDS011;10873;51.132;16.848;2022-12-11T02:02:11;22.08;;;16.00;;
21424;SDS011;10873;51.132;16.848;2022-12-11T02:04:44;21.13;;;15.32;;
21424;SDS011;10873;51.132;16.848;2022-12-11T02:07:11;20.55;;;15.23;;
21424;SDS011;10873;51.132;16.848;2022-12-11T02:09:38;21.13;;;16.00;;
21424;SDS011;10873;51.132;16.848;2022-12-11T02:12:07;20.95;;;16.35;;
21424;SDS011;10873;51.132;16.848;2022-12-11T02:14:41;19.35;;;14.93;;
21424;SDS011;10873;51.132;16.848;2022-12-11T02:17:13;21.10;;;15.75;;
21424;SDS011;10873;51.132;16.848;2022-12-11T02:19:47;20.80;;;15.77;;
21424;SDS011;10873;51.132;16.848;2022-12-11T02:22:21;21.83;;;15.93;;
21424;SDS011;10873;51.132;16.848;2022-12-11T02:24:57;23.05;;;16.23;;
21424;SDS011;10873;51.132;16.848;2022-12-11T02:27:31;22.17;;;15.73;;
21424;SDS011;10873;51.132;16.848;2022-12-11T02:30:06;23.52;;;16.33;;
21424;SDS011;10873;51.132;16.848;2022-12-11T02:32:36;21.85;;;15.82;;
21424;SDS011;10873;51.132;16.848;2022-12-11T02:35:07;22.17;;;15.93;;
21424;SDS011;10873;51.132;16.848;2022-12-11T02:37:36;20.83;;;15.52;;
21424;SDS011;10873;51.132;16.848;2022-12-11T02:40:06;21.48;;;14.95;;
21424;SDS011;10873;51.132;16.848;2022-12-11T02:42:35;20.63;;;15.25;;
21424;SDS011;10873;51.132;16.848;2022-12-11T02:45:04;21.02;;;15.48;;
21424;SDS011;10873;51.132;16.848;2022-12-11T02:47:34;20.30;;;14.82;;
21424;SDS011;10873;51.132;16.848;2022-12-11T02:50:02;21.33;;;15.20;;
21424;SDS011;10873;51.132;16.848;2022-12-11T02:52:34;20.50;;;15.32;;
21424;SDS011;10873;51.132;16.848;2022-12-11T02:55:01;21.90;;;15.30;;
21424;SDS011;10873;51.132;16.848;2022-12-11T02:57:32;19.90;;;14.80;;
21424;SDS011;10873;51.132;16.848;2022-12-11T03:00:02;19.48;;;14.23;;
21424;SDS011;10873;51.132;16.848;2022-12-11T03:02:30;18.20;;;14.23;;
21424;SDS011;10873;51.132;16.848;2022-12-11T03:04:56;18.17;;;14.63;;
21424;SDS011;10873;51.132;16.848;2022-12-11T03:07:25;19.15;;;14.07;;
21424;SDS011;10873;51.132;16.848;2022-12-11T03:09:53;17.60;;;13.82;;
21424;SDS011;10873;51.132;16.848;2022-12-11T03:12:20;19.77;;;14.40;;
21424;SDS011;10873;51.132;16.848;2022-12-11T03:14:48;19.38;;;13.80;;
21424;SDS011;10873;51.132;16.848;2022-12-11T03:17:15;19.35;;;13.60;;
21424;SDS011;10873;51.132;16.848;2022-12-11T03:19:46;21.15;;;14.63;;
21424;SDS011;10873;51.132;16.848;2022-12-11T03:22:18;20.40;;;15.18;;
21424;SDS011;10873;51.132;16.848;2022-12-11T03:24:48;22.23;;;16.08;;
21424;SDS011;10873;51.132;16.848;2022-12-11T03:27:18;29.05;;;19.73;;
21424;SDS011;10873;51.132;16.848;2022-12-11T03:29:51;33.75;;;23.85;;
21424;SDS011;10873;51.132;16.848;2022-12-11T03:32:20;39.38;;;27.45;;
21424;SDS011;10873;51.132;16.848;2022-12-11T03:34:53;41.92;;;27.77;;
21424;SDS011;10873;51.132;16.848;2022-12-11T03:37:24;43.67;;;30.33;;
21424;SDS011;10873;51.132;16.848;2022-12-11T03:39:55;46.55;;;31.30;;
21424;SDS011;10873;51.132;16.848;2022-12-11T03:42:26;47.45;;;32.72;;
21424;SDS011;10873;51.132;16.848;2022-12-11T03:44:53;46.83;;;32.65;;
21424;SDS011;10873;51.132;16.848;2022-12-11T03:47:23;43.67;;;31.80;;
21424;SDS011;10873;51.132;16.848;2022-12-11T03:49:53;43.63;;;31.02;;
21424;SDS011;10873;51.132;16.848;2022-12-11T03:52:20;47.72;;;32.08;;
21424;SDS011;10873;51.132;16.848;2022-12-11T03:54:47;44.28;;;32.17;;
21424;SDS011;10873;51.132;16.848;2022-12-11T03:57:15;42.97;;;29.98;;
21424;SDS011;10873;51.132;16.848;2022-12-11T03:59:45;39.33;;;26.30;;
21424;SDS011;10873;51.132;16.848;2022-12-11T04:02:12;36.13;;;25.52;;
21424;SDS011;10873;51.132;16.848;2022-12-11T04:04:39;34.50;;;24.52;;
21424;SDS011;10873;51.132;16.848;2022-12-11T04:07:08;33.58;;;23.38;;
21424;SDS011;10873;51.132;16.848;2022-12-11T04:09:34;31.27;;;23.30;;
21424;SDS011;10873;51.132;16.848;2022-12-11T04:12:00;30.80;;;21.35;;
21424;SDS011;10873;51.132;16.848;2022-12-11T04:14:26;29.05;;;21.17;;
21424;SDS011;10873;51.132;16.848;2022-12-11T04:17:11;28.23;;;19.45;;
21424;SDS011;10873;51.132;16.848;2022-12-11T04:19:36;27.75;;;19.90;;
21424;SDS011;10873;51.132;16.848;2022-12-11T04:22:22;25.80;;;18.67;;
21424;SDS011;10873;51.132;16.848;2022-12-11T04:25:07;25.40;;;18.33;;
21424;SDS011;10873;51.132;16.848;2022-12-11T04:27:33;25.33;;;18.13;;
21424;SDS011;10873;51.132;16.848;2022-12-11T04:30:15;25.65;;;18.08;;
21424;SDS011;10873;51.132;16.848;2022-12-11T04:32:43;23.60;;;17.10;;
21424;SDS011;10873;51.132;16.848;2022-12-11T04:35:09;22.50;;;16.17;;
21424;SDS011;10873;51.132;16.848;2022-12-11T04:37:38;20.65;;;15.77;;
21424;SDS011;10873;51.132;16.848;2022-12-11T04:40:04;21.98;;;15.57;;
21424;SDS011;10873;51.132;16.848;2022-12-11T04:42:33;19.50;;;14.45;;
21424;SDS011;10873;51.132;16.848;2022-12-11T04:44:58;21.00;;;15.50;;
21424;SDS011;10873;51.132;16.848;2022-12-11T04:47:25;20.23;;;15.32;;
21424;SDS011;10873;51.132;16.848;2022-12-11T04:49:51;18.98;;;14.32;;
21424;SDS011;10873;51.132;16.848;2022-12-11T04:52:17;19.55;;;14.45;;
21424;SDS011;10873;51.132;16.848;2022-12-11T04:54:45;19.60;;;13.85;;
21424;SDS011;10873;51.132;16.848;2022-12-11T04:57:11;18.73;;;13.85;;
21424;SDS011;10873;51.132;16.848;2022-12-11T04:59:37;20.17;;;14.85;;
21424;SDS011;10873;51.132;16.848;2022-12-11T05:02:03;17.73;;;13.95;;
21424;SDS011;10873;51.132;16.848;2022-12-11T05:04:29;18.92;;;14.25;;
21424;SDS011;10873;51.132;16.848;2022-12-11T05:06:56;18.30;;;14.05;;
21424;SDS011;10873;51.132;16.848;2022-12-11T05:09:22;19.77;;;13.75;;
21424;SDS011;10873;51.132;16.848;2022-12-11T05:11:50;18.90;;;13.63;;
21424;SDS011;10873;51.132;16.848;2022-12-11T05:14:15;17.15;;;13.00;;
21424;SDS011;10873;51.132;16.848;2022-12-11T05:16:42;17.15;;;12.98;;
21424;SDS011;10873;51.132;16.848;2022-12-11T05:19:08;17.23;;;13.13;;
21424;SDS011;10873;51.132;16.848;2022-12-11T05:21:34;16.17;;;12.68;;
21424;SDS011;10873;51.132;16.848;2022-12-11T05:24:00;16.45;;;12.18;;
21424;SDS011;10873;51.132;16.848;2022-12-11T05:26:27;16.58;;;12.77;;
21424;SDS011;10873;51.132;16.848;2022-12-11T05:28:55;15.13;;;11.95;;
21424;SDS011;10873;51.132;16.848;2022-12-11T05:31:21;16.58;;;12.68;;
21424;SDS011;10873;51.132;16.848;2022-12-11T05:33:49;16.13;;;12.23;;
21424;SDS011;10873;51.132;16.848;2022-12-11T05:36:16;14.63;;;11.82;;
21424;SDS011;10873;51.132;16.848;2022-12-11T05:38:45;17.60;;;12.75;;
21424;SDS011;10873;51.132;16.848;2022-12-11T05:41:12;15.70;;;12.50;;
21424;SDS011;10873;51.132;16.848;2022-12-11T05:43:39;18.17;;;12.98;;
21424;SDS011;10873;51.132;16.848;2022-12-11T05:46:08;15.88;;;11.80;;
21424;SDS011;10873;51.132;16.848;2022-12-11T05:48:35;15.63;;;12.13;;
21424;SDS011;10873;51.132;16.848;2022-12-11T05:51:02;14.95;;;11.60;;
21424;SDS011;10873;51.132;16.848;2022-12-11T05:53:29;16.88;;;12.55;;
21424;SDS011;10873;51.132;16.848;2022-12-11T05:55:59;14.95;;;11.20;;
21424;SDS011;10873;51.132;16.848;2022-12-11T05:58:26;15.15;;;12.05;;
21424;SDS011;10873;51.132;16.848;2022-12-11T06:00:53;16.00;;;11.80;;
21424;SDS011;10873;51.132;16.848;2022-12-11T06:03:20;15.13;;;11.73;;
21424;SDS011;10873;51.132;16.848;2022-12-11T06:05:46;14.00;;;11.25;;
21424;SDS011;10873;51.132;16.848;2022-12-11T06:08:12;15.15;;;11.38;;
21424;SDS011;10873;51.132;16.848;2022-12-11T06:10:43;17.92;;;13.20;;
21424;SDS011;10873;51.132;16.848;2022-12-11T06:13:10;20.20;;;14.98;;
21424;SDS011;10873;51.132;16.848;2022-12-11T06:15:36;20.98;;;16.52;;
21424;SDS011;10873;51.132;16.848;2022-12-11T06:18:02;22.70;;;17.08;;
21424;SDS011;10873;51.132;16.848;2022-12-11T06:20:31;22.35;;;16.92;;
21424;SDS011;10873;51.132;16.848;2022-12-11T06:22:57;22.05;;;15.85;;
21424;SDS011;10873;51.132;16.848;2022-12-11T06:25:23;19.48;;;15.70;;
21424;SDS011;10873;51.132;16.848;2022-12-11T06:27:49;20.45;;;15.50;;
21424;SDS011;10873;51.132;16.848;2022-12-11T06:30:16;18.08;;;14.18;;
21424;SDS011;10873;51.132;16.848;2022-12-11T06:32:42;18.92;;;14.45;;
21424;SDS011;10873;51.132;16.848;2022-12-11T06:35:08;17.77;;;13.77;;
21424;SDS011;10873;51.132;16.848;2022-12-11T06:37:36;17.65;;;13.57;;
21424;SDS011;10873;51.132;16.848;2022-12-11T06:40:03;16.90;;;13.30;;
21424;SDS011;10873;51.132;16.848;2022-12-11T06:42:30;16.63;;;13.10;;
21424;SDS011;10873;51.132;16.848;2022-12-11T06:44:57;16.75;;;12.23;;
21424;SDS011;10873;51.132;16.848;2022-12-11T06:47:24;16.40;;;12.98;;
21424;SDS011;10873;51.132;16.848;2022-12-11T06:49:50;16.75;;;12.20;;
21424;SDS011;10873;51.132;16.848;2022-12-11T06:52:16;15.98;;;12.43;;
21424;SDS011;10873;51.132;16.848;2022-12-11T06:54:43;14.95;;;11.30;;
21424;SDS011;10873;51.132;16.848;2022-12-11T06:57:09;15.45;;;11.65;;
21424;SDS011;10873;51.132;16.848;2022-12-11T06:59:36;19.80;;;11.52;;
21424;SDS011;10873;51.132;16.848;2022-12-11T07:02:02;14.70;;;11.52;;
21424;SDS011;10873;51.132;16.848;2022-12-11T07:04:28;32.60;;;11.35;;
21424;SDS011;10873;51.132;16.848;2022-12-11T07:06:55;16.83;;;11.38;;
21424;SDS011;10873;51.132;16.848;2022-12-11T07:09:21;13.52;;;10.63;;
21424;SDS011;10873;51.132;16.848;2022-12-11T07:11:49;14.60;;;11.10;;
21424;SDS011;10873;51.132;16.848;2022-12-11T07:14:16;17.10;;;11.18;;
21424;SDS011;10873;51.132;16.848;2022-12-11T07:16:42;13.98;;;10.98;;
21424;SDS011;10873;51.132;16.848;2022-12-11T07:19:08;16.58;;;10.80;;
21424;SDS011;10873;51.132;16.848;2022-12-11T07:21:34;15.95;;;11.32;;
21424;SDS011;10873;51.132;16.848;2022-12-11T07:24:00;14.25;;;10.40;;
21424;SDS011;10873;51.132;16.848;2022-12-11T07:26:26;15.30;;;10.70;;
21424;SDS011;10873;51.132;16.848;2022-12-11T07:28:55;15.70;;;11.23;;
21424;SDS011;10873;51.132;16.848;2022-12-11T07:31:22;14.90;;;11.18;;
21424;SDS011;10873;51.132;16.848;2022-12-11T07:33:51;16.15;;;10.80;;
21424;SDS011;10873;51.132;16.848;2022-12-11T07:36:18;13.05;;;10.77;;
21424;SDS011;10873;51.132;16.848;2022-12-11T07:38:44;14.00;;;10.73;;
21424;SDS011;10873;51.132;16.848;2022-12-11T07:41:11;12.02;;;10.23;;
21424;SDS011;10873;51.132;16.848;2022-12-11T07:43:37;13.90;;;10.70;;
21424;SDS011;10873;51.132;16.848;2022-12-11T07:46:06;18.98;;;11.43;;
21424;SDS011;10873;51.132;16.848;2022-12-11T07:48:33;39.72;;;12.55;;
21424;SDS011;10873;51.132;16.848;2022-12-11T07:51:06;33.47;;;12.80;;
21424;SDS011;10873;51.132;16.848;2022-12-11T07:53:33;24.25;;;11.48;;
21424;SDS011;10873;51.132;16.848;2022-12-11T07:55:59;27.58;;;11.70;;
21424;SDS011;10873;51.132;16.848;2022-12-11T07:58:25;30.52;;;11.63;;
21424;SDS011;10873;51.132;16.848;2022-12-11T08:00:52;19.67;;;11.38;;
21424;SDS011;10873;51.132;16.848;2022-12-11T08:03:19;22.98;;;12.13;;
21424;SDS011;10873;51.132;16.848;2022-12-11T08:05:45;25.08;;;11.05;;
21424;SDS011;10873;51.132;16.848;2022-12-11T08:08:13;20.35;;;10.85;;
21424;SDS011;10873;51.132;16.848;2022-12-11T08:10:39;16.83;;;11.13;;
21424;SDS011;10873;51.132;16.848;2022-12-11T08:13:05;14.32;;;10.32;;
21424;SDS011;10873;51.132;16.848;2022-12-11T08:15:31;18.50;;;10.80;;
21424;SDS011;10873;51.132;16.848;2022-12-11T08:17:58;18.73;;;10.45;;
21424;SDS011;10873;51.132;16.848;2022-12-11T08:20:25;13.82;;;10.27;;
21424;SDS011;10873;51.132;16.848;2022-12-11T08:22:51;15.32;;;10.77;;
21424;SDS011;10873;51.132;16.848;2022-12-11T08:25:17;15.00;;;10.90;;
21424;SDS011;10873;51.132;16.848;2022-12-11T08:27:44;14.57;;;11.10;;
21424;SDS011;10873;51.132;16.848;2022-12-11T08:30:10;17.10;;;10.43;;
21424;SDS011;10873;51.132;16.848;2022-12-11T08:32:37;14.35;;;10.57;;
21424;SDS011;10873;51.132;16.848;2022-12-11T08:35:03;12.15;;;9.93;;
21424;SDS011;10873;51.132;16.848;2022-12-11T08:37:30;12.98;;;10.27;;
21424;SDS011;10873;51.132;16.848;2022-12-11T08:39:58;14.02;;;9.70;;
21424;SDS011;10873;51.132;16.848;2022-12-11T08:42:24;15.15;;;10.10;;
21424;SDS011;10873;51.132;16.848;2022-12-11T08:44:50;12.13;;;9.90;;
21424;SDS011;10873;51.132;16.848;2022-12-11T08:47:16;13.00;;;10.38;;
21424;SDS011;10873;51.132;16.848;2022-12-11T08:49:42;13.20;;;9.70;;
21424;SDS011;10873;51.132;16.848;2022-12-11T08:52:08;17.15;;;10.32;;
21424;SDS011;10873;51.132;16.848;2022-12-11T08:54:36;16.42;;;10.38;;
21424;SDS011;10873;51.132;16.848;2022-12-11T08:57:03;14.05;;;9.98;;
21424;SDS011;10873;51.132;16.848;2022-12-11T08:59:29;12.80;;;9.52;;
21424;SDS011;10873;51.132;16.848;2022-12-11T09:01:55;13.73;;;9.52;;
21424;SDS011;10873;51.132;16.848;2022-12-11T09:04:22;13.88;;;9.60;;
21424;SDS011;10873;51.132;16.848;2022-12-11T09:06:48;11.88;;;9.68;;
21424;SDS011;10873;51.132;16.848;2022-12-11T09:09:14;14.75;;;9.95;;
21424;SDS011;10873;51.132;16.848;2022-12-11T09:11:41;15.23;;;9.57;;
21424;SDS011;10873;51.132;16.848;2022-12-11T09:14:07;12.77;;;8.82;;
21424;SDS011;10873;51.132;16.848;2022-12-11T09:16:34;12.95;;;9.65;;
21424;SDS011;10873;51.132;16.848;2022-12-11T09:19:05;17.85;;;8.90;;
21424;SDS011;10873;51.132;16.848;2022-12-11T09:21:32;11.20;;;9.10;;
21424;SDS011;10873;51.132;16.848;2022-12-11T09:24:00;16.90;;;8.93;;
21424;SDS011;10873;51.132;16.848;2022-12-11T09:26:53;14.00;;;9.15;;
21424;SDS011;10873;51.132;16.848;2022-12-11T09:29:21;12.57;;;9.20;;
21424;SDS011;10873;51.132;16.848;2022-12-11T09:31:48;14.30;;;9.23;;
21424;SDS011;10873;51.132;16.848;2022-12-11T09:34:14;14.15;;;8.73;;
21424;SDS011;10873;51.132;16.848;2022-12-11T09:36:41;15.07;;;8.90;;
21424;SDS011;10873;51.132;16.848;2022-12-11T09:39:10;13.27;;;9.25;;
21424;SDS011;10873;51.132;16.848;2022-12-11T09:41:38;12.40;;;8.93;;
21424;SDS011;10873;51.132;16.848;2022-12-11T09:44:19;12.07;;;8.40;;
21424;SDS011;10873;51.132;16.848;2022-12-11T09:46:55;12.95;;;8.25;;
21424;SDS011;10873;51.132;16.848;2022-12-11T09:49:27;11.27;;;8.50;;
21424;SDS011;10873;51.132;16.848;2022-12-11T09:52:03;11.18;;;8.52;;
21424;SDS011;10873;51.132;16.848;2022-12-11T09:54:34;11.98;;;8.90;;
21424;SDS011;10873;51.132;16.848;2022-12-11T09:57:03;10.93;;;8.75;;
21424;SDS011;10873;51.132;16.848;2022-12-11T09:59:39;11.40;;;8.43;;
21424;SDS011;10873;51.132;16.848;2022-12-11T10:02:21;14.27;;;8.13;;
21424;SDS011;10873;51.132;16.848;2022-12-11T10:04:57;12.93;;;9.35;;
21424;SDS011;10873;51.132;16.848;2022-12-11T10:07:33;11.00;;;8.90;;
21424;SDS011;10873;51.132;16.848;2022-12-11T10:10:07;10.85;;;8.80;;
21424;SDS011;10873;51.132;16.848;2022-12-11T10:12:41;12.23;;;9.10;;
21424;SDS011;10873;51.132;16.848;2022-12-11T10:15:27;13.30;;;8.80;;
21424;SDS011;10873;51.132;16.848;2022-12-11T10:18:02;10.35;;;8.40;;
21424;SDS011;10873;51.132;16.848;2022-12-11T10:20:34;10.93;;;8.52;;
21424;SDS011;10873;51.132;16.848;2022-12-11T10:23:04;13.68;;;8.90;;
21424;SDS011;10873;51.132;16.848;2022-12-11T10:25:33;10.40;;;8.15;;
21424;SDS011;10873;51.132;16.848;2022-12-11T10:28:07;12.57;;;8.18;;
21424;SDS011;10873;51.132;16.848;2022-12-11T10:30:38;8.63;;;7.60;;
21424;SDS011;10873;51.132;16.848;2022-12-11T10:33:13;9.68;;;8.15;;
21424;SDS011;10873;51.132;16.848;2022-12-11T10:35:46;10.88;;;7.85;;
21424;SDS011;10873;51.132;16.848;2022-12-11T10:38:15;11.52;;;8.10;;
21424;SDS011;10873;51.132;16.848;2022-12-11T10:40:46;15.82;;;8.40;;
21424;SDS011;10873;51.132;16.848;2022-12-11T10:43:15;10.93;;;7.68;;
21424;SDS011;10873;51.132;16.848;2022-12-11T10:45:50;10.40;;;7.93;;
21424;SDS011;10873;51.132;16.848;2022-12-11T10:48:17;9.80;;;7.88;;
21424;SDS011;10873;51.132;16.848;2022-12-11T10:50:43;13.15;;;7.65;;
21424;SDS011;10873;51.132;16.848;2022-12-11T10:53:21;9.93;;;7.40;;
21424;SDS011;10873;51.132;16.848;2022-12-11T10:55:48;9.93;;;7.95;;
21424;SDS011;10873;51.132;16.848;2022-12-11T10:58:16;9.15;;;7.05;;
21424;SDS011;10873;51.132;16.848;2022-12-11T11:00:43;8.30;;;6.88;;
21424;SDS011;10873;51.132;16.848;2022-12-11T11:03:19;8.65;;;7.07;;
21424;SDS011;10873;51.132;16.848;2022-12-11T11:05:46;9.52;;;7.65;;
21424;SDS011;10873;51.132;16.848;2022-12-11T11:08:16;10.35;;;7.10;;
21424;SDS011;10873;51.132;16.848;2022-12-11T11:10:53;11.10;;;6.80;;
21424;SDS011;10873;51.132;16.848;2022-12-11T11:13:22;11.30;;;7.25;;
21424;SDS011;10873;51.132;16.848;2022-12-11T11:15:49;10.85;;;7.28;;
21424;SDS011;10873;51.132;16.848;2022-12-11T11:18:25;8.23;;;6.72;;
21424;SDS011;10873;51.132;16.848;2022-12-11T11:20:54;9.85;;;7.03;;
21424;SDS011;10873;51.132;16.848;2022-12-11T11:23:20;9.38;;;7.20;;
21424;SDS011;10873;51.132;16.848;2022-12-11T11:25:48;9.20;;;6.97;;
21424;SDS011;10873;51.132;16.848;2022-12-11T11:28:19;9.52;;;7.20;;
21424;SDS011;10873;51.132;16.848;2022-12-11T11:30:56;8.02;;;6.70;;
21424;SDS011;10873;51.132;16.848;2022-12-11T11:33:27;10.25;;;7.10;;
21424;SDS011;10873;51.132;16.848;2022-12-11T11:35:55;9.18;;;6.72;;
21424;SDS011;10873;51.132;16.848;2022-12-11T11:38:22;7.88;;;6.38;;
21424;SDS011;10873;51.132;16.848;2022-12-11T11:40:52;10.52;;;6.38;;
21424;SDS011;10873;51.132;16.848;2022-12-11T11:43:26;7.45;;;6.07;;
21424;SDS011;10873;51.132;16.848;2022-12-11T11:45:58;7.88;;;6.57;;
21424;SDS011;10873;51.132;16.848;2022-12-11T11:48:35;7.40;;;6.20;;
21424;SDS011;10873;51.132;16.848;2022-12-11T11:51:12;8.13;;;6.28;;
21424;SDS011;10873;51.132;16.848;2022-12-11T11:53:40;8.77;;;6.88;;
21424;SDS011;10873;51.132;16.848;2022-12-11T11:56:15;8.25;;;6.40;;
21424;SDS011;10873;51.132;16.848;2022-12-11T11:58:47;8.20;;;5.97;;
21424;SDS011;10873;51.132;16.848;2022-12-11T12:01:20;7.07;;;6.15;;
21424;SDS011;10873;51.132;16.848;2022-12-11T12:03:48;8.07;;;6.78;;
21424;SDS011;10873;51.132;16.848;2022-12-11T12:06:17;10.20;;;7.35;;
21424;SDS011;10873;51.132;16.848;2022-12-11T12:08:54;7.80;;;6.60;;
21424;SDS011;10873;51.132;16.848;2022-12-11T12:11:28;7.35;;;6.43;;
21424;SDS011;10873;51.132;16.848;2022-12-11T12:14:02;8.90;;;6.97;;
21424;SDS011;10873;51.132;16.848;2022-12-11T12:16:39;7.07;;;5.90;;
21424;SDS011;10873;51.132;16.848;2022-12-11T12:19:18;10.93;;;6.80;;
21424;SDS011;10873;51.132;16.848;2022-12-11T12:21:56;8.40;;;6.82;;
21424;SDS011;10873;51.132;16.848;2022-12-11T12:24:31;7.72;;;6.45;;
21424;SDS011;10873;51.132;16.848;2022-12-11T12:27:07;7.95;;;6.20;;
21424;SDS011;10873;51.132;16.848;2022-12-11T12:29:41;7.45;;;6.20;;
21424;SDS011;10873;51.132;16.848;2022-12-11T12:32:16;8.18;;;6.55;;
21424;SDS011;10873;51.132;16.848;2022-12-11T12:34:54;7.15;;;6.43;;
21424;SDS011;10873;51.132;16.848;2022-12-11T12:37:39;7.45;;;5.95;;
21424;SDS011;10873;51.132;16.848;2022-12-11T12:40:13;8.63;;;6.40;;
21424;SDS011;10873;51.132;16.848;2022-12-11T12:42:50;8.32;;;6.70;;
21424;SDS011;10873;51.132;16.848;2022-12-11T12:45:24;6.85;;;6.10;;
21424;SDS011;10873;51.132;16.848;2022-12-11T12:47:53;6.90;;;6.13;;
21424;SDS011;10873;51.132;16.848;2022-12-11T12:50:21;7.18;;;5.80;;
21424;SDS011;10873;51.132;16.848;2022-12-11T12:52:50;8.15;;;6.20;;
21424;SDS011;10873;51.132;16.848;2022-12-11T12:55:19;8.13;;;6.50;;
21424;SDS011;10873;51.132;16.848;2022-12-11T12:57:48;7.75;;;6.47;;
21424;SDS011;10873;51.132;16.848;2022-12-11T13:00:30;7.80;;;6.45;;
21424;SDS011;10873;51.132;16.848;2022-12-11T13:02:58;7.28;;;5.78;;
21424;SDS011;10873;51.132;16.848;2022-12-11T13:05:29;6.85;;;5.60;;
21424;SDS011;10873;51.132;16.848;2022-12-11T13:07:58;6.60;;;5.90;;
21424;SDS011;10873;51.132;16.848;2022-12-11T13:10:28;7.57;;;6.07;;
21424;SDS011;10873;51.132;16.848;2022-12-11T13:12:56;7.88;;;6.22;;
21424;SDS011;10873;51.132;16.848;2022-12-11T13:15:25;6.53;;;5.55;;
21424;SDS011;10873;51.132;16.848;2022-12-11T13:17:57;7.22;;;5.97;;
21424;SDS011;10873;51.132;16.848;2022-12-11T13:20:24;7.22;;;5.55;;
21424;SDS011;10873;51.132;16.848;2022-12-11T13:22:55;8.55;;;5.70;;
21424;SDS011;10873;51.132;16.848;2022-12-11T13:25:44;7.07;;;5.82;;
21424;SDS011;10873;51.132;16.848;2022-12-11T13:28:23;6.60;;;5.88;;
21424;SDS011;10873;51.132;16.848;2022-12-11T13:31:03;6.38;;;5.72;;
21424;SDS011;10873;51.132;16.848;2022-12-11T13:33:51;6.78;;;5.82;;
21424;SDS011;10873;51.132;16.848;2022-12-11T13:36:28;7.97;;;5.70;;
21424;SDS011;10873;51.132;16.848;2022-12-11T13:38:59;8.13;;;6.18;;
21424;SDS011;10873;51.132;16.848;2022-12-11T13:41:28;8.10;;;6.40;;
21424;SDS011;10873;51.132;16.848;2022-12-11T13:43:57;8.07;;;5.88;;
21424;SDS011;10873;51.132;16.848;2022-12-11T13:46:25;7.80;;;6.38;;
21424;SDS011;10873;51.132;16.848;2022-12-11T13:48:54;8.48;;;6.88;;
21424;SDS011;10873;51.132;16.848;2022-12-11T13:51:25;7.95;;;6.65;;
21424;SDS011;10873;51.132;16.848;2022-12-11T13:54:12;9.43;;;7.00;;
21424;SDS011;10873;51.132;16.848;2022-12-11T13:56:40;15.13;;;7.68;;
21424;SDS011;10873;51.132;16.848;2022-12-11T13:59:22;11.93;;;7.50;;
21424;SDS011;10873;51.132;16.848;2022-12-11T14:01:51;14.43;;;7.82;;
21424;SDS011;10873;51.132;16.848;2022-12-11T14:04:19;12.32;;;7.55;;
21424;SDS011;10873;51.132;16.848;2022-12-11T14:06:50;12.93;;;7.78;;
21424;SDS011;10873;51.132;16.848;2022-12-11T14:09:17;12.82;;;7.97;;
21424;SDS011;10873;51.132;16.848;2022-12-11T14:11:46;14.40;;;7.85;;
21424;SDS011;10873;51.132;16.848;2022-12-11T14:14:17;13.07;;;8.00;;
21424;SDS011;10873;51.132;16.848;2022-12-11T14:16:46;12.25;;;7.22;;
21424;SDS011;10873;51.132;16.848;2022-12-11T14:19:13;13.18;;;7.78;;
21424;SDS011;10873;51.132;16.848;2022-12-11T14:21:42;12.75;;;7.82;;
21424;SDS011;10873;51.132;16.848;2022-12-11T14:24:19;11.13;;;7.40;;
21424;SDS011;10873;51.132;16.848;2022-12-11T14:26:48;11.00;;;6.72;;
21424;SDS011;10873;51.132;16.848;2022-12-11T14:29:22;11.40;;;6.60;;
21424;SDS011;10873;51.132;16.848;2022-12-11T14:31:52;14.80;;;7.13;;